createdAt,value
2023-05-01T00:00:42.306Z,15.21
2023-05-01T00:01:42.572Z,15.19
2023-05-01T00:02:42.879Z,15.20
2023-05-01T00:03:43.177Z,15.21
2023-05-01T00:04:43.231Z,15.21
2023-05-01T00:05:43.482Z,15.20
2023-05-01T00:06:43.842Z,15.15
2023-05-01T00:07:44.129Z,15.17
2023-05-01T00:08:44.404Z,15.15
2023-05-01T00:09:44.603Z,15.15
2023-05-01T00:10:44.921Z,15.15
2023-05-01T00:11:45.254Z,15.19
2023-05-01T00:12:45.512Z,15.15
2023-05-01T00:13:45.806Z,15.17
2023-05-01T00:14:46.070Z,15.13
2023-05-01T00:15:46.676Z,15.12
2023-05-01T00:16:46.877Z,15.11
2023-05-01T00:17:47.063Z,15.06
2023-05-01T00:18:47.294Z,15.06
2023-05-01T00:19:47.693Z,15.09
2023-05-01T00:20:47.897Z,15.05
2023-05-01T00:21:48.296Z,15.06
2023-05-01T00:22:48.543Z,15.06
2023-05-01T00:23:48.731Z,15.05
2023-05-01T00:24:49.072Z,15.03
2023-05-01T00:25:49.260Z,15.03
2023-05-01T00:26:49.492Z,15.01
2023-05-01T00:27:49.819Z,15.01
2023-05-01T00:28:50.271Z,14.95
2023-05-01T00:29:50.370Z,14.91
2023-05-01T00:30:50.682Z,14.95
2023-05-01T00:31:51.072Z,14.91
2023-05-01T00:32:51.359Z,14.91
2023-05-01T00:33:51.568Z,14.93
2023-05-01T00:34:51.772Z,14.93
2023-05-01T00:35:52.301Z,14.84
2023-05-01T00:36:52.439Z,14.81
2023-05-01T00:37:52.886Z,14.75
2023-05-01T00:38:53.071Z,14.72
2023-05-01T00:39:53.424Z,14.78
2023-05-01T00:40:53.641Z,14.80
2023-05-01T00:41:53.989Z,14.78
2023-05-01T00:42:54.304Z,14.83
2023-05-01T00:43:54.563Z,14.81
2023-05-01T00:44:54.823Z,14.78
2023-05-01T00:45:55.038Z,14.74
2023-05-01T00:46:55.345Z,14.72
2023-05-01T00:47:55.763Z,14.69
2023-05-01T00:48:55.911Z,14.69
2023-05-01T00:49:56.632Z,14.68
2023-05-01T00:50:56.459Z,14.67
2023-05-01T00:51:56.773Z,14.67
2023-05-01T00:52:57.125Z,14.67
2023-05-01T00:53:57.564Z,14.69
2023-05-01T00:54:57.662Z,14.69
2023-05-01T00:55:58.369Z,14.71
2023-05-01T00:56:58.359Z,14.68
2023-05-01T00:57:58.611Z,14.67
2023-05-01T00:58:58.817Z,14.68
2023-05-01T00:59:59.178Z,14.69
2023-05-01T01:00:59.380Z,14.67
2023-05-01T01:02:00.506Z,14.68
2023-05-01T01:02:59.957Z,14.68
2023-05-01T01:04:00.220Z,14.69
2023-05-01T01:05:00.494Z,14.69
2023-05-01T01:06:00.813Z,14.68
2023-05-01T01:07:01.094Z,14.67
2023-05-01T01:08:01.325Z,14.69
2023-05-01T01:09:01.633Z,14.68
2023-05-01T01:10:01.948Z,14.65
2023-05-01T01:11:02.265Z,14.64
2023-05-01T01:12:02.534Z,14.64
2023-05-01T01:13:02.891Z,14.61
2023-05-01T01:14:03.189Z,14.62
2023-05-01T01:15:03.507Z,14.61
2023-05-01T01:16:03.776Z,14.60
2023-05-01T01:17:04.103Z,14.57
2023-05-01T01:18:04.301Z,14.56
2023-05-01T01:19:04.634Z,14.53
2023-05-01T01:20:04.864Z,14.53
2023-05-01T01:21:05.255Z,14.53
2023-05-01T01:22:05.488Z,14.53
2023-05-01T01:23:05.740Z,14.50
2023-05-01T01:24:05.960Z,14.52
2023-05-01T01:25:06.349Z,14.49
2023-05-01T01:26:06.629Z,14.49
2023-05-01T01:27:06.904Z,14.47
2023-05-01T01:28:07.165Z,14.47
2023-05-01T01:29:07.517Z,14.46
2023-05-01T01:30:07.785Z,14.44
2023-05-01T01:31:08.241Z,14.46
2023-05-01T01:32:08.414Z,14.44
2023-05-01T01:33:08.700Z,14.43
2023-05-01T01:34:09.074Z,14.44
2023-05-01T01:35:09.241Z,14.44
2023-05-01T01:36:09.533Z,14.43
2023-05-01T01:37:09.835Z,14.35
2023-05-01T01:38:10.160Z,14.37
2023-05-01T01:39:10.367Z,14.35
2023-05-01T01:40:10.757Z,14.42
2023-05-01T01:41:10.988Z,14.43
2023-05-01T01:42:11.264Z,14.38
2023-05-01T01:43:11.602Z,14.39
2023-05-01T01:44:11.846Z,14.39
2023-05-01T01:45:12.213Z,14.38
2023-05-01T01:46:12.577Z,14.35
2023-05-01T01:47:12.790Z,14.38
2023-05-01T01:48:13.212Z,14.37
2023-05-01T01:49:13.498Z,14.35
2023-05-01T01:50:13.733Z,14.35
2023-05-01T01:51:14.072Z,14.37
2023-05-01T01:52:14.329Z,14.42
2023-05-01T01:53:14.551Z,14.38
2023-05-01T01:54:14.813Z,14.38
2023-05-01T01:55:15.083Z,14.38
2023-05-01T01:56:15.391Z,14.35
2023-05-01T01:57:15.752Z,14.35
2023-05-01T01:58:15.964Z,14.32
2023-05-01T01:59:16.234Z,14.34
2023-05-01T02:00:16.605Z,14.34
2023-05-01T02:01:16.903Z,14.37
2023-05-01T02:02:17.113Z,14.27
2023-05-01T02:03:17.574Z,14.14
2023-05-01T02:04:17.704Z,14.12
2023-05-01T02:05:18.010Z,14.07
2023-05-01T02:06:18.354Z,14.07
2023-05-01T02:07:18.510Z,14.01
2023-05-01T02:08:18.800Z,13.99
2023-05-01T02:09:19.126Z,14.01
2023-05-01T02:10:19.381Z,14.07
2023-05-01T02:11:19.596Z,14.13
2023-05-01T02:12:19.897Z,14.14
2023-05-01T02:13:20.170Z,14.14
2023-05-01T02:14:20.500Z,14.16
2023-05-01T02:15:20.914Z,14.17
2023-05-01T02:16:21.097Z,14.16
2023-05-01T02:17:21.480Z,14.12
2023-05-01T02:18:21.625Z,14.13
2023-05-01T02:19:21.892Z,14.12
2023-05-01T02:20:22.149Z,14.10
2023-05-01T02:21:22.477Z,14.13
2023-05-01T02:22:22.799Z,14.12
2023-05-01T02:23:23.116Z,14.16
2023-05-01T02:24:23.361Z,14.17
2023-05-01T02:25:23.658Z,14.21
2023-05-01T02:26:24.135Z,14.24
2023-05-01T02:27:24.210Z,14.27
2023-05-01T02:28:24.503Z,14.31
2023-05-01T02:29:24.822Z,14.32
2023-05-01T02:30:25.185Z,14.29
2023-05-01T02:31:25.488Z,14.29
2023-05-01T02:32:25.706Z,14.29
2023-05-01T02:33:26.084Z,14.28
2023-05-01T02:34:26.362Z,14.31
2023-05-01T02:35:26.687Z,14.29
2023-05-01T02:36:26.969Z,14.27
2023-05-01T02:37:27.221Z,14.29
2023-05-01T02:38:27.535Z,14.29
2023-05-01T02:39:27.821Z,14.31
2023-05-01T02:40:28.075Z,14.29
2023-05-01T02:41:28.438Z,14.34
2023-05-01T02:42:28.827Z,14.31
2023-05-01T02:43:28.958Z,14.34
2023-05-01T02:44:29.248Z,14.35
2023-05-01T02:45:29.490Z,14.34
2023-05-01T02:46:30.002Z,14.31
2023-05-01T02:47:30.173Z,14.31
2023-05-01T02:48:30.560Z,14.34
2023-05-01T02:49:30.686Z,14.31
2023-05-01T02:50:30.896Z,14.31
2023-05-01T02:51:31.170Z,14.31
2023-05-01T02:52:31.491Z,14.34
2023-05-01T02:53:31.770Z,14.34
2023-05-01T02:54:32.039Z,14.31
2023-05-01T02:55:32.323Z,14.34
2023-05-01T02:56:32.656Z,14.31
2023-05-01T02:57:32.982Z,14.32
2023-05-01T02:58:33.400Z,14.35
2023-05-01T02:59:33.510Z,14.35
2023-05-01T03:00:33.930Z,14.39
2023-05-01T03:01:34.086Z,14.38
2023-05-01T03:02:34.404Z,14.37
2023-05-01T03:03:34.665Z,14.38
2023-05-01T03:04:34.997Z,14.39
2023-05-01T03:05:35.262Z,14.39
2023-05-01T03:06:35.557Z,14.39
2023-05-01T03:07:35.826Z,14.37
2023-05-01T03:08:36.145Z,14.37
2023-05-01T03:09:36.376Z,14.38
2023-05-01T03:10:36.748Z,14.34
2023-05-01T03:11:36.959Z,14.32
2023-05-01T03:12:37.372Z,14.29
2023-05-01T03:13:37.707Z,14.29
2023-05-01T03:14:37.844Z,14.28
2023-05-01T03:15:38.139Z,14.34
2023-05-01T03:16:38.512Z,14.34
2023-05-01T03:17:38.779Z,14.29
2023-05-01T03:18:39.069Z,14.31
2023-05-01T03:19:39.277Z,14.32
2023-05-01T03:20:39.661Z,14.31
2023-05-01T03:21:39.957Z,14.21
2023-05-01T03:22:40.295Z,14.24
2023-05-01T03:23:40.466Z,14.24
2023-05-01T03:24:40.732Z,14.19
2023-05-01T03:25:41.055Z,14.12
2023-05-01T03:26:41.456Z,14.12
2023-05-01T03:27:41.548Z,14.16
2023-05-01T03:28:41.884Z,14.17
2023-05-01T03:29:42.218Z,14.17
2023-05-01T03:30:42.824Z,14.20
2023-05-01T03:31:42.784Z,14.20
2023-05-01T03:32:43.081Z,14.19
2023-05-01T03:33:43.379Z,14.21
2023-05-01T03:34:43.608Z,14.17
2023-05-01T03:35:44.035Z,14.13
2023-05-01T03:36:44.245Z,14.13
2023-05-01T03:37:44.559Z,14.14
2023-05-01T03:38:44.847Z,14.13
2023-05-01T03:39:45.212Z,14.16
2023-05-01T03:40:45.514Z,14.13
2023-05-01T03:41:45.823Z,14.12
2023-05-01T03:42:46.090Z,14.13
2023-05-01T03:43:46.382Z,14.14
2023-05-01T03:44:46.593Z,14.17
2023-05-01T03:45:47.023Z,14.20
2023-05-01T03:46:47.173Z,14.21
2023-05-01T03:47:47.428Z,14.16
2023-05-01T03:48:47.674Z,14.17
2023-05-01T03:49:47.904Z,14.16
2023-05-01T03:50:48.124Z,14.16
2023-05-01T03:51:48.400Z,14.19
2023-05-01T03:52:48.780Z,14.16
2023-05-01T03:53:49.005Z,14.13
2023-05-01T03:54:49.223Z,14.13
2023-05-01T03:55:57.866Z,14.12
2023-05-01T03:56:50.803Z,14.13
2023-05-01T03:57:50.035Z,14.10
2023-05-01T03:58:50.181Z,14.09
2023-05-01T03:59:50.952Z,14.06
2023-05-01T04:00:50.995Z,14.04
2023-05-01T04:01:51.172Z,14.01
2023-05-01T04:02:51.972Z,14.01
2023-05-01T04:03:51.797Z,13.99
2023-05-01T04:04:51.851Z,14.01
2023-05-01T04:05:52.126Z,14.01
2023-05-01T04:06:52.548Z,14.02
2023-05-01T04:07:53.292Z,14.01
2023-05-01T04:08:53.079Z,14.01
2023-05-01T04:09:53.457Z,14.04
2023-05-01T04:10:53.731Z,13.98
2023-05-01T04:11:53.960Z,13.99
2023-05-01T04:12:54.309Z,13.98
2023-05-01T04:13:54.534Z,13.92
2023-05-01T04:14:54.929Z,13.88
2023-05-01T04:15:55.154Z,13.83
2023-05-01T04:16:55.469Z,13.80
2023-05-01T04:17:55.608Z,13.73
2023-05-01T04:18:55.908Z,13.69
2023-05-01T04:19:56.624Z,13.69
2023-05-01T04:20:56.565Z,13.70
2023-05-01T04:21:56.887Z,13.70
2023-05-01T04:22:57.223Z,13.71
2023-05-01T04:23:57.682Z,13.69
2023-05-01T04:24:57.767Z,13.71
2023-05-01T04:25:58.244Z,13.69
2023-05-01T04:26:58.409Z,13.69
2023-05-01T04:27:58.607Z,13.70
2023-05-01T04:28:59.148Z,13.67
2023-05-01T04:29:59.524Z,13.62
2023-05-01T04:30:59.642Z,13.59
2023-05-01T04:31:59.971Z,13.59
2023-05-01T04:33:00.330Z,13.59
2023-05-01T04:34:00.450Z,13.58
2023-05-01T04:35:01.295Z,13.52
2023-05-01T04:36:01.086Z,13.52
2023-05-01T04:37:01.382Z,13.54
2023-05-01T04:38:01.698Z,13.51
2023-05-01T04:39:02.160Z,13.56
2023-05-01T04:40:02.357Z,13.56
2023-05-01T04:41:02.596Z,13.56
2023-05-01T04:42:02.890Z,13.55
2023-05-01T04:43:03.237Z,13.56
2023-05-01T04:44:03.768Z,13.56
2023-05-01T04:45:03.852Z,13.56
2023-05-01T04:46:04.141Z,13.56
2023-05-01T04:47:04.446Z,13.52
2023-05-01T04:48:04.714Z,13.52
2023-05-01T04:49:05.118Z,13.55
2023-05-01T04:50:05.151Z,13.59
2023-05-01T04:51:05.450Z,13.59
2023-05-01T04:52:05.866Z,13.59
2023-05-01T04:53:06.085Z,13.59
2023-05-01T04:54:06.226Z,13.58
2023-05-01T04:55:06.700Z,13.58
2023-05-01T04:56:06.881Z,13.61
2023-05-01T04:57:07.096Z,13.59
2023-05-01T04:58:07.557Z,13.61
2023-05-01T04:59:07.755Z,13.63
2023-05-01T05:00:08.394Z,13.59
2023-05-01T05:01:08.433Z,13.58
2023-05-01T05:02:08.661Z,13.59
2023-05-01T05:03:08.974Z,13.62
2023-05-01T05:04:09.233Z,13.62
2023-05-01T05:05:09.444Z,13.58
2023-05-01T05:06:09.786Z,13.61
2023-05-01T05:07:09.971Z,13.56
2023-05-01T05:08:10.243Z,13.52
2023-05-01T05:09:10.470Z,13.52
2023-05-01T05:10:11.284Z,13.47
2023-05-01T05:11:10.939Z,13.47
2023-05-01T05:12:11.322Z,13.44
2023-05-01T05:13:11.512Z,13.43
2023-05-01T05:14:11.935Z,13.41
2023-05-01T05:15:12.086Z,13.46
2023-05-01T05:16:12.449Z,13.49
2023-05-01T05:17:12.619Z,13.52
2023-05-01T05:18:12.990Z,13.51
2023-05-01T05:19:13.198Z,13.49
2023-05-01T05:20:13.561Z,13.46
2023-05-01T05:21:13.974Z,13.51
2023-05-01T05:22:14.027Z,13.51
2023-05-01T05:23:14.396Z,13.49
2023-05-01T05:24:14.671Z,13.49
2023-05-01T05:25:14.894Z,13.54
2023-05-01T05:26:15.222Z,13.55
2023-05-01T05:27:15.565Z,13.54
2023-05-01T05:28:15.916Z,13.58
2023-05-01T05:29:16.301Z,13.59
2023-05-01T05:30:16.533Z,13.58
2023-05-01T05:31:16.919Z,13.59
2023-05-01T05:32:17.221Z,13.52
2023-05-01T05:33:17.570Z,13.41
2023-05-01T05:34:17.729Z,13.36
2023-05-01T05:35:18.123Z,13.33
2023-05-01T05:36:18.380Z,13.41
2023-05-01T05:37:18.683Z,13.46
2023-05-01T05:38:18.917Z,13.47
2023-05-01T05:39:19.343Z,13.54
2023-05-01T05:40:19.491Z,13.55
2023-05-01T05:41:19.696Z,13.58
2023-05-01T05:42:20.000Z,13.63
2023-05-01T05:43:20.204Z,13.65
2023-05-01T05:44:20.489Z,13.63
2023-05-01T05:45:20.848Z,13.63
2023-05-01T05:46:21.113Z,13.67
2023-05-01T05:47:21.324Z,13.62
2023-05-01T05:48:21.703Z,13.65
2023-05-01T05:49:21.900Z,13.61
2023-05-01T05:50:22.116Z,13.61
2023-05-01T05:51:22.579Z,13.65
2023-05-01T05:52:23.377Z,13.70
2023-05-01T05:53:25.518Z,13.70
2023-05-01T05:54:23.336Z,13.67
2023-05-01T05:55:23.566Z,13.67
2023-05-01T05:56:24.258Z,13.62
2023-05-01T05:57:24.435Z,13.63
2023-05-01T05:58:24.547Z,13.65
2023-05-01T05:59:25.449Z,13.67
2023-05-01T06:00:25.074Z,13.70
2023-05-01T06:01:25.310Z,13.73
2023-05-01T06:02:25.642Z,13.74
2023-05-01T06:03:25.964Z,13.76
2023-05-01T06:04:26.163Z,13.79
2023-05-01T06:05:26.523Z,13.77
2023-05-01T06:06:26.690Z,13.79
2023-05-01T06:07:27.012Z,13.80
2023-05-01T06:08:27.385Z,13.80
2023-05-01T06:09:27.576Z,13.84
2023-05-01T06:10:27.971Z,13.89
2023-05-01T06:11:28.215Z,13.89
2023-05-01T06:12:28.456Z,13.92
2023-05-01T06:13:28.816Z,13.94
2023-05-01T06:14:28.981Z,13.96
2023-05-01T06:15:29.222Z,14.01
2023-05-01T06:16:29.684Z,14.02
2023-05-01T06:17:29.896Z,14.09
2023-05-01T06:18:30.092Z,14.10
2023-05-01T06:19:30.332Z,14.13
2023-05-01T06:20:30.760Z,14.16
2023-05-01T06:21:30.898Z,14.14
2023-05-01T06:22:31.437Z,14.12
2023-05-01T06:23:31.748Z,14.17
2023-05-01T06:24:31.865Z,14.20
2023-05-01T06:25:32.222Z,14.21
2023-05-01T06:26:32.617Z,14.28
2023-05-01T06:27:32.677Z,14.34
2023-05-01T06:28:32.972Z,14.38
2023-05-01T06:29:33.330Z,14.46
2023-05-01T06:30:33.712Z,14.43
2023-05-01T06:31:33.952Z,14.43
2023-05-01T06:32:34.157Z,14.54
2023-05-01T06:33:34.437Z,14.56
2023-05-01T06:34:34.730Z,14.61
2023-05-01T06:35:35.340Z,14.61
2023-05-01T06:36:35.445Z,14.62
2023-05-01T06:37:35.590Z,14.64
2023-05-01T06:38:36.071Z,14.61
2023-05-01T06:39:36.239Z,14.62
2023-05-01T06:40:36.624Z,14.61
2023-05-01T06:41:36.928Z,14.62
2023-05-01T06:42:37.105Z,14.50
2023-05-01T06:43:37.508Z,14.49
2023-05-01T06:44:37.844Z,14.49
2023-05-01T06:45:38.056Z,14.50
2023-05-01T06:46:38.371Z,14.53
2023-05-01T06:47:38.745Z,14.56
2023-05-01T06:48:38.806Z,14.54
2023-05-01T06:49:39.141Z,14.54
2023-05-01T06:50:39.558Z,14.56
2023-05-01T06:51:39.879Z,14.61
2023-05-01T06:52:40.107Z,14.65
2023-05-01T06:53:40.368Z,14.72
2023-05-01T06:54:40.607Z,14.78
2023-05-01T06:55:40.828Z,14.81
2023-05-01T06:56:41.332Z,14.80
2023-05-01T06:57:41.553Z,14.81
2023-05-01T06:58:41.779Z,14.80
2023-05-01T06:59:42.095Z,14.87
2023-05-01T07:00:42.492Z,14.78
2023-05-01T07:01:42.830Z,14.74
2023-05-01T07:02:43.136Z,14.71
2023-05-01T07:03:43.295Z,14.78
2023-05-01T07:04:43.527Z,14.83
2023-05-01T07:05:43.773Z,14.84
2023-05-01T07:06:44.049Z,14.87
2023-05-01T07:07:50.455Z,14.90
2023-05-01T07:08:45.581Z,14.94
2023-05-01T07:09:44.801Z,14.98
2023-05-01T07:10:45.178Z,14.94
2023-05-01T07:11:45.401Z,14.94
2023-05-01T07:12:45.614Z,14.98
2023-05-01T07:13:45.890Z,15.02
2023-05-01T07:14:46.206Z,15.05
2023-05-01T07:15:46.468Z,15.08
2023-05-01T07:16:46.784Z,15.06
2023-05-01T07:17:47.005Z,15.11
2023-05-01T07:18:47.292Z,15.13
2023-05-01T07:19:47.499Z,15.12
2023-05-01T07:20:47.715Z,15.13
2023-05-01T07:21:48.001Z,15.12
2023-05-01T07:22:48.288Z,15.05
2023-05-01T07:23:48.780Z,15.11
2023-05-01T07:24:48.793Z,15.19
2023-05-01T07:25:48.979Z,15.27
2023-05-01T07:26:49.330Z,15.28
2023-05-01T07:27:49.585Z,15.27
2023-05-01T07:28:49.827Z,15.30
2023-05-01T07:29:50.036Z,15.38
2023-05-01T07:30:50.720Z,15.41
2023-05-01T07:31:50.665Z,15.42
2023-05-01T07:32:50.904Z,15.43
2023-05-01T07:33:52.326Z,15.31
2023-05-01T07:34:51.626Z,15.35
2023-05-01T07:35:51.807Z,15.36
2023-05-01T07:36:52.214Z,15.39
2023-05-01T07:37:52.463Z,15.42
2023-05-01T07:38:52.792Z,15.48
2023-05-01T07:39:53.110Z,15.49
2023-05-01T07:40:53.336Z,15.52
2023-05-01T07:41:53.480Z,15.56
2023-05-01T07:42:54.557Z,15.57
2023-05-01T07:43:54.062Z,15.60
2023-05-01T07:44:54.497Z,15.57
2023-05-01T07:45:54.853Z,15.64
2023-05-01T07:46:55.053Z,15.64
2023-05-01T07:47:55.436Z,15.63
2023-05-01T07:48:55.638Z,15.70
2023-05-01T07:49:56.093Z,15.72
2023-05-01T07:50:56.246Z,15.75
2023-05-01T07:51:56.420Z,15.81
2023-05-01T07:52:57.628Z,15.82
2023-05-01T07:53:57.839Z,15.93
2023-05-01T07:54:57.329Z,15.94
2023-05-01T07:55:57.552Z,15.96
2023-05-01T07:56:57.776Z,15.96
2023-05-01T07:57:58.065Z,16.00
2023-05-01T07:58:58.298Z,16.01
2023-05-01T07:59:58.761Z,16.03
2023-05-01T08:00:58.933Z,16.11
2023-05-01T08:01:59.402Z,16.11
2023-05-01T08:02:59.664Z,16.12
2023-05-01T08:03:59.817Z,16.18
2023-05-01T08:05:00.094Z,16.20
2023-05-01T08:06:00.427Z,16.27
2023-05-01T08:07:00.624Z,16.40
2023-05-01T08:08:00.900Z,16.31
2023-05-01T08:09:01.242Z,16.35
2023-05-01T08:10:01.691Z,16.31
2023-05-01T08:11:01.772Z,16.35
2023-05-01T08:12:02.058Z,16.42
2023-05-01T08:13:02.298Z,16.55
2023-05-01T08:14:02.617Z,16.55
2023-05-01T08:15:02.824Z,16.49
2023-05-01T08:16:03.146Z,16.53
2023-05-01T08:17:03.314Z,16.63
2023-05-01T08:18:03.714Z,16.71
2023-05-01T08:19:03.925Z,16.74
2023-05-01T08:20:04.262Z,16.78
2023-05-01T08:21:04.483Z,16.80
2023-05-01T08:22:04.721Z,16.88
2023-05-01T08:23:04.969Z,16.92
2023-05-01T08:24:05.221Z,16.80
2023-05-01T08:25:05.475Z,16.77
2023-05-01T08:26:05.717Z,16.77
2023-05-01T08:27:05.949Z,16.85
2023-05-01T08:28:06.299Z,16.85
2023-05-01T08:29:06.496Z,16.86
2023-05-01T08:30:06.859Z,16.92
2023-05-01T08:31:07.164Z,16.96
2023-05-01T08:32:07.430Z,17.00
2023-05-01T08:33:07.735Z,16.96
2023-05-01T08:34:07.998Z,16.95
2023-05-01T08:35:08.203Z,17.00
2023-05-01T08:36:08.515Z,17.06
2023-05-01T08:37:08.874Z,17.07
2023-05-01T08:38:09.064Z,16.86
2023-05-01T08:39:09.417Z,16.55
2023-05-01T08:40:09.669Z,16.52
2023-05-01T08:41:09.980Z,16.62
2023-05-01T08:42:10.190Z,16.70
2023-05-01T08:43:10.422Z,16.71
2023-05-01T08:44:10.629Z,16.59
2023-05-01T08:45:10.976Z,16.70
2023-05-01T08:46:11.308Z,16.86
2023-05-01T08:47:12.677Z,17.07
2023-05-01T08:48:11.959Z,17.28
2023-05-01T08:49:11.980Z,17.46
2023-05-01T08:50:12.473Z,17.55
2023-05-01T08:51:12.657Z,17.48
2023-05-01T08:52:12.913Z,17.40
2023-05-01T08:53:13.250Z,17.47
2023-05-01T08:54:13.507Z,17.50
2023-05-01T08:55:13.691Z,17.57
2023-05-01T08:56:14.043Z,17.55
2023-05-01T08:57:14.403Z,17.69
2023-05-01T08:58:14.678Z,17.84
2023-05-01T08:59:14.890Z,17.94
2023-05-01T09:00:15.118Z,18.13
2023-05-01T09:01:15.513Z,18.42
2023-05-01T09:02:15.786Z,18.57
2023-05-01T09:03:16.133Z,18.65
2023-05-01T09:04:16.264Z,18.59
2023-05-01T09:05:16.502Z,18.19
2023-05-01T09:06:16.830Z,17.87
2023-05-01T09:07:17.083Z,17.97
2023-05-01T09:08:17.220Z,18.13
2023-05-01T09:09:17.451Z,18.07
2023-05-01T09:10:17.694Z,17.92
2023-05-01T09:11:17.914Z,17.81
2023-05-01T09:12:18.240Z,17.70
2023-05-01T09:13:18.560Z,17.67
2023-05-01T09:14:18.794Z,17.30
2023-05-01T09:15:19.258Z,17.08
2023-05-01T09:16:19.482Z,17.08
2023-05-01T09:17:19.714Z,17.13
2023-05-01T09:18:19.911Z,17.08
2023-05-01T09:19:20.231Z,17.04
2023-05-01T09:20:20.550Z,17.15
2023-05-01T09:21:20.757Z,17.29
2023-05-01T09:22:20.993Z,17.63
2023-05-01T09:23:21.436Z,18.18
2023-05-01T09:24:21.585Z,18.91
2023-05-01T09:25:21.884Z,19.38
2023-05-01T09:26:22.144Z,19.63
2023-05-01T09:27:22.400Z,19.84
2023-05-01T09:28:22.714Z,20.27
2023-05-01T09:29:22.998Z,20.72
2023-05-01T09:30:23.240Z,20.96
2023-05-01T09:31:23.499Z,21.34
2023-05-01T09:32:23.775Z,21.64
2023-05-01T09:33:25.049Z,21.30
2023-05-01T09:34:24.425Z,21.17
2023-05-01T09:35:24.593Z,21.46
2023-05-01T09:36:24.795Z,21.44
2023-05-01T09:37:25.129Z,21.82
2023-05-01T09:38:26.394Z,22.31
2023-05-01T09:39:25.700Z,22.52
2023-05-01T09:40:25.993Z,22.86
2023-05-01T09:41:26.222Z,22.72
2023-05-01T09:42:26.397Z,22.74
2023-05-01T09:43:26.806Z,22.04
2023-05-01T09:44:27.089Z,21.92
2023-05-01T09:45:27.306Z,22.64
2023-05-01T09:46:27.651Z,23.19
2023-05-01T09:47:27.887Z,23.05
2023-05-01T09:48:28.109Z,22.46
2023-05-01T09:49:28.303Z,22.17
2023-05-01T09:50:28.622Z,22.01
2023-05-01T09:51:28.969Z,22.10
2023-05-01T09:52:29.265Z,22.22
2023-05-01T09:53:29.479Z,22.01
2023-05-01T09:54:30.702Z,22.01
2023-05-01T09:55:30.073Z,21.94
2023-05-01T09:56:30.500Z,22.60
2023-05-01T09:57:30.623Z,23.22
2023-05-01T09:58:30.996Z,22.94
2023-05-01T09:59:31.174Z,23.02
2023-05-01T10:00:31.448Z,23.27
2023-05-01T10:01:31.823Z,23.42
2023-05-01T10:02:32.134Z,23.23
2023-05-01T10:03:32.405Z,23.42
2023-05-01T10:04:32.560Z,23.57
2023-05-01T10:05:32.897Z,23.94
2023-05-01T10:06:33.633Z,23.97
2023-05-01T10:07:33.459Z,23.42
2023-05-01T10:08:33.725Z,22.82
2023-05-01T10:09:33.971Z,22.56
2023-05-01T10:10:34.354Z,22.56
2023-05-01T10:11:34.602Z,22.57
2023-05-01T10:12:34.814Z,22.50
2023-05-01T10:13:36.012Z,22.57
2023-05-01T10:14:35.376Z,22.29
2023-05-01T10:15:35.762Z,21.97
2023-05-01T10:16:36.022Z,22.16
2023-05-01T10:17:36.284Z,22.59
2023-05-01T10:18:36.561Z,23.09
2023-05-01T10:19:36.763Z,23.60
2023-05-01T10:20:37.220Z,24.23
2023-05-01T10:21:37.404Z,24.79
2023-05-01T10:22:37.638Z,24.63
2023-05-01T10:23:37.871Z,24.67
2023-05-01T10:24:39.085Z,24.14
2023-05-01T10:25:38.551Z,23.64
2023-05-01T10:26:38.902Z,24.01
2023-05-01T10:27:39.183Z,24.16
2023-05-01T10:28:39.440Z,24.39
2023-05-01T10:29:39.759Z,24.50
2023-05-01T10:30:39.913Z,24.07
2023-05-01T10:31:42.330Z,23.90
2023-05-01T10:32:40.701Z,23.98
2023-05-01T10:33:40.869Z,24.23
2023-05-01T10:34:41.212Z,24.20
2023-05-01T10:35:41.452Z,24.04
2023-05-01T10:36:41.872Z,24.52
2023-05-01T10:37:42.080Z,24.75
2023-05-01T10:38:42.290Z,24.22
2023-05-01T10:39:42.931Z,23.65
2023-05-01T10:40:42.905Z,22.87
2023-05-01T10:41:43.248Z,22.50
2023-05-01T10:42:43.518Z,22.77
2023-05-01T10:43:43.762Z,23.50
2023-05-01T10:44:44.011Z,23.46
2023-05-01T10:45:44.181Z,23.46
2023-05-01T10:46:44.696Z,23.89
2023-05-01T10:47:44.925Z,24.41
2023-05-01T10:48:45.109Z,25.02
2023-05-01T10:49:45.473Z,25.61
2023-05-01T10:50:45.698Z,26.06
2023-05-01T10:51:45.930Z,26.54
2023-05-01T10:52:46.239Z,26.24
2023-05-01T10:53:46.717Z,26.05
2023-05-01T10:54:46.904Z,26.35
2023-05-01T10:55:47.620Z,26.29
2023-05-01T10:56:47.420Z,26.11
2023-05-01T10:57:47.719Z,25.94
2023-05-01T10:58:47.939Z,25.44
2023-05-01T10:59:48.131Z,25.01
2023-05-01T11:00:48.536Z,24.45
2023-05-01T11:01:48.793Z,23.79
2023-05-01T11:02:49.108Z,23.02
2023-05-01T11:03:49.423Z,22.72
2023-05-01T11:04:49.780Z,22.52
2023-05-01T11:05:50.024Z,22.64
2023-05-01T11:06:50.259Z,23.02
2023-05-01T11:07:50.575Z,23.42
2023-05-01T11:08:58.319Z,23.38
2023-05-01T11:09:51.074Z,23.50
2023-05-01T11:10:51.354Z,23.90
2023-05-01T11:11:51.601Z,24.45
2023-05-01T11:12:52.012Z,24.94
2023-05-01T11:13:52.345Z,25.16
2023-05-01T11:14:52.529Z,25.44
2023-05-01T11:15:52.805Z,24.67
2023-05-01T11:16:53.378Z,24.59
2023-05-01T11:17:53.406Z,24.80
2023-05-01T11:18:53.619Z,24.59
2023-05-01T11:19:53.891Z,24.57
2023-05-01T11:20:54.188Z,25.01
2023-05-01T11:21:54.417Z,24.95
2023-05-01T11:22:54.689Z,25.05
2023-05-01T11:23:54.912Z,24.79
2023-05-01T11:24:55.462Z,24.90
2023-05-01T11:25:55.475Z,25.02
2023-05-01T11:26:55.664Z,25.13
2023-05-01T11:27:56.028Z,24.98
2023-05-01T11:28:56.282Z,24.97
2023-05-01T11:29:56.538Z,24.87
2023-05-01T11:30:56.745Z,24.64
2023-05-01T11:31:57.178Z,24.42
2023-05-01T11:32:57.418Z,24.57
2023-05-01T11:33:57.666Z,25.17
2023-05-01T11:34:58.282Z,25.67
2023-05-01T11:35:58.168Z,25.68
2023-05-01T11:36:58.428Z,25.30
2023-05-01T11:37:58.648Z,25.25
2023-05-01T11:38:58.921Z,25.37
2023-05-01T11:39:59.166Z,25.32
2023-05-01T11:40:59.498Z,25.44
2023-05-01T11:41:59.776Z,25.68
2023-05-01T11:42:59.985Z,25.62
2023-05-01T11:44:00.229Z,25.50
2023-05-01T11:45:00.520Z,25.32
2023-05-01T11:46:00.803Z,24.63
2023-05-01T11:47:00.984Z,24.34
2023-05-01T11:48:03.627Z,24.14
2023-05-01T11:49:01.668Z,23.79
2023-05-01T11:50:01.891Z,23.53
2023-05-01T11:51:02.091Z,23.31
2023-05-01T11:52:02.345Z,22.67
2023-05-01T11:53:02.682Z,22.41
2023-05-01T11:54:03.023Z,22.25
2023-05-01T11:55:03.653Z,22.16
2023-05-01T11:56:08.688Z,21.88
2023-05-01T11:57:04.864Z,21.82
2023-05-01T11:58:04.152Z,21.72
2023-05-01T11:59:04.415Z,21.64
2023-05-01T12:00:04.678Z,21.56
2023-05-01T12:01:04.910Z,21.44
2023-05-01T12:02:05.381Z,21.45
2023-05-01T12:03:05.604Z,21.26
2023-05-01T12:04:05.875Z,21.17
2023-05-01T12:05:06.192Z,21.11
2023-05-01T12:06:06.278Z,21.02
2023-05-01T12:07:06.503Z,21.14
2023-05-01T12:08:06.705Z,21.21
2023-05-01T12:09:07.178Z,21.27
2023-05-01T12:10:08.270Z,21.35
2023-05-01T12:11:07.665Z,21.24
2023-05-01T12:12:07.907Z,21.23
2023-05-01T12:13:08.251Z,21.32
2023-05-01T12:14:08.476Z,21.32
2023-05-01T12:15:08.725Z,21.35
2023-05-01T12:16:09.042Z,21.14
2023-05-01T12:17:09.254Z,20.84
2023-05-01T12:18:09.741Z,20.84
2023-05-01T12:19:09.818Z,20.74
2023-05-01T12:20:10.165Z,20.77
2023-05-01T12:21:10.360Z,20.80
2023-05-01T12:22:10.598Z,20.64
2023-05-01T12:23:10.999Z,20.50
2023-05-01T12:24:11.293Z,20.53
2023-05-01T12:25:11.477Z,20.58
2023-05-01T12:26:11.858Z,20.51
2023-05-01T12:27:12.048Z,20.43
2023-05-01T12:28:12.342Z,20.49
2023-05-01T12:29:12.629Z,20.50
2023-05-01T12:30:12.782Z,20.41
2023-05-01T12:31:13.088Z,20.39
2023-05-01T12:32:13.407Z,20.56
2023-05-01T12:33:13.766Z,20.72
2023-05-01T12:34:13.969Z,20.74
2023-05-01T12:35:14.300Z,20.91
2023-05-01T12:36:14.699Z,21.05
2023-05-01T12:37:14.971Z,21.21
2023-05-01T12:38:15.224Z,21.34
2023-05-01T12:39:15.398Z,21.44
2023-05-01T12:40:15.739Z,21.46
2023-05-01T12:41:16.085Z,21.53
2023-05-01T12:42:16.323Z,21.67
2023-05-01T12:43:16.822Z,21.72
2023-05-01T12:44:16.914Z,21.69
2023-05-01T12:45:17.355Z,21.42
2023-05-01T12:46:17.625Z,21.50
2023-05-01T12:47:17.834Z,21.57
2023-05-01T12:48:18.353Z,21.66
2023-05-01T12:49:18.428Z,21.50
2023-05-01T12:50:18.577Z,21.36
2023-05-01T12:51:18.854Z,21.50
2023-05-01T12:52:19.125Z,21.57
2023-05-01T12:53:19.367Z,21.57
2023-05-01T12:54:19.728Z,21.66
2023-05-01T12:55:19.992Z,21.50
2023-05-01T12:56:20.229Z,21.21